Universal Bremen — LXEM — position and weather

sailwx.info

Track history (hours):
 
Tides and Currents Weather Stations Pressure Air Temp Water Temp Dewpoint Dewpoint Depression Visibility Wind Speed Wind Dir Waves Ship Positions

Universal Bremen

Last reported at 2014-Jul-25 01:34 UTC. Time now 2014-Jul-25 09:05 UTC.
Position N 01°23' E 103°57'.

Length 189 m; draft 6.8 m.

Type: Cargo ship. MMSI: 253466000.

Date/timePositionNaut miles runAvg speedWind from/ knotsBaromVisibWave heightAir tempDewpointWater temp
2014-Jul-25 01:34N 01°23' E 103°57'9 8.4
2014-Jul-25 00:33N 01°20' E 104°05'7 6.9
2014-Jul-24 23:33N 01°16' E 103°59'7 6.6
2014-Jul-24 22:31N 01°15' E 103°53'0 0.0
2014-Jul-24 21:31N 01°15' E 103°53'0 0.1
2014-Jul-24 20:31N 01°15' E 103°53'0 0.1
2014-Jul-24 19:31N 01°15' E 103°52'0 0.0
2014-Jul-24 18:31N 01°15' E 103°52'0 0.1
2014-Jul-24 17:31N 01°15' E 103°53'0 0.0
2014-Jul-24 16:31N 01°15' E 103°53'0 0.1
2014-Jul-24 15:31N 01°15' E 103°53'1 0.9
2014-Jul-24 14:34N 01°14' E 103°52'4 3.9
2014-Jul-24 13:30N 01°12' E 103°49'7 7.4
2014-Jul-24 12:32N 01°17' E 103°44'  
2014-Jul-20 23:19N 01°18' E 103°43'4 4.5
2014-Jul-20 22:32N 01°16' E 103°46'8 8.0
2014-Jul-20 21:33N 01°13' E 103°53'8 7.7
2014-Jul-20 20:34N 01°16' E 104°00'  
2014-Jul-15 03:03N 22°19' E 114°05'  
Track history (hours):
 
Tides and Currents Weather Stations Pressure Air Temp Water Temp Dewpoint Dewpoint Depression Visibility Wind Speed Wind Dir Waves Ship Positions

Universal Bremen

Last reported at 2014-Jul-25 01:34 UTC. Time now 2014-Jul-25 09:05 UTC.
Position N 01°23' E 103°57'.

Length 189 m; draft 6.8 m.

Type: Cargo ship. MMSI: 253466000.

Date/timePositionNaut miles runAvg speedWind from/ knotsBaromVisibWave heightAir tempDewpointWater temp
2014-Jul-25 01:34N 01°23' E 103°57'9 8.4
2014-Jul-25 00:33N 01°20' E 104°05'7 6.9
2014-Jul-24 23:33N 01°16' E 103°59'7 6.6
2014-Jul-24 22:31N 01°15' E 103°53'0 0.0
2014-Jul-24 21:31N 01°15' E 103°53'0 0.1
2014-Jul-24 20:31N 01°15' E 103°53'0 0.1
2014-Jul-24 19:31N 01°15' E 103°52'0 0.0
2014-Jul-24 18:31N 01°15' E 103°52'0 0.1
2014-Jul-24 17:31N 01°15' E 103°53'0 0.0
2014-Jul-24 16:31N 01°15' E 103°53'0 0.1
2014-Jul-24 15:31N 01°15' E 103°53'1 0.9
2014-Jul-24 14:34N 01°14' E 103°52'4 3.9
2014-Jul-24 13:30N 01°12' E 103°49'7 7.4
2014-Jul-24 12:32N 01°17' E 103°44'  
2014-Jul-20 23:19N 01°18' E 103°43'4 4.5
2014-Jul-20 22:32N 01°16' E 103°46'8 8.0
2014-Jul-20 21:33N 01°13' E 103°53'8 7.7
2014-Jul-20 20:34N 01°16' E 104°00'  
2014-Jul-15 03:03N 22°19' E 114°05'  

Dump ship's entire track history